Airfield :
LOGIN :

Register | Disclaimer

   EN    FR    IT 

 










Legend :    VFR   Marginal VFR   IFR   Intensive IFR   Very Intensive IFR
Visi :
Ceiling :
>= 8 km
>= 3000ft
5 to 8 km
1000 to 3000 ft
1500m to 5 km
500 to 1000 ft
800 to 1500m
200 to 500 ft
< 800m
< 200 ft
Symbols :   Thunderstorms  Fog  Heavy snow  Heavy precipitations  Wind > 20 kt
SIGMETs :     Misc.  Thunderstorms  Icing  Turbulence  Mountain Waves  Volcanic Ashes






- Airport Elevation : 239 ft
- IATA code : VRN


LIPX - Villafranca Int. Verona

CURRENT METAR :
  • 270750Z 08004KT 050V110 3000 BR FEW002 BKN050 07/07 Q0992

EXPIRED METARs :
  • 270720Z 10003KT 040V140 0800 R04/1100U FG SCT001 BKN050 05/05 Q0992
  • 270650Z 34003KT 0400 R04/0450N FG VV001 03/03 Q0992
  • 270620Z 08003KT 0800 R04/0700U FG BKN001 04/04 Q0992
  • 270550Z AUTO VRB01KT 0250 0050SW R04/0600U BCFG VV004 05/05 Q0992

TAF TAF LIPX
Valid from the 27 at 06:00 until the 28 at 06:00 UTC


270500Z 2706/2806 VRB05KT 3000 BR SCT040
PROB40
TEMPO 2706/2708 0500 FG OVC002
BECMG 2708/2710 7000
BECMG 2713/2715 08012KT
TEMPO 2716/2724 4000 SHRA
BECMG 2722/2724 25007KT



MET'MAP, your aeronautical weather chart ! - Copyright ORBIFLY December 2007 - Disclaimer

ORBIFLY MET'MAP TEAM :

Programming & Development : Alexandra Zaïnal
Concept & original design : Baudouin d'Aumeries
Assistance for programming : Marc-Olivier Méhu
Technical & hardware support : Manuel Goepfert

Contact : metmap@orbifly.com




SOURCES & CREDITS :

   NOAA